NKS1548 KSEA-KSLC
Flight info
| Callsign | NKS1548 |
|---|---|
| Flight time | 1h 36m |
| Altitude | 37000 |
| Route | SUMMA2 SUMMA WANTA Q154 BYI SKEES6 |
| Aircraft | A320/M-SDE3FGHIRWY/LB1 |
Departure
| Time | 2026-05-05 20:47 |
|---|---|
| Airport | Seattle–Tacoma International Airport (KSEA) |
Arrival
| Time | 2026-05-05 22:23 |
|---|---|
| Airport | Salt Lake City International Airport (KSLC) |
| Time | Latitude | Longitude | Altitude | Speed | Heading |
|---|---|---|---|---|---|
| 2026-05-05 19:26 | 47.44963 | -122.30290 | 410 ft | 0 kts | 221° |
| 2026-05-05 20:33 | 47.44964 | -122.30289 | 409 ft | 2 kts | 221° |
| 2026-05-05 20:33 | 47.44982 | -122.30264 | 410 ft | 4 kts | 230° |
| 2026-05-05 20:33 | 47.44996 | -122.30232 | 408 ft | 4 kts | 257° |
| 2026-05-05 20:33 | 47.44995 | -122.30203 | 406 ft | 1 kts | 310° |
| 2026-05-05 20:34 | 47.44995 | -122.30202 | 406 ft | 1 kts | 310° |
| 2026-05-05 20:37 | 47.45003 | -122.30217 | 410 ft | 3 kts | 310° |
| 2026-05-05 20:38 | 47.45019 | -122.30243 | 409 ft | 4 kts | 310° |
| 2026-05-05 20:38 | 47.45036 | -122.30277 | 413 ft | 4 kts | 301° |
| 2026-05-05 20:38 | 47.45040 | -122.30323 | 413 ft | 5 kts | 274° |
| 2026-05-05 20:38 | 47.45043 | -122.30384 | 414 ft | 6 kts | 272° |
| 2026-05-05 20:39 | 47.45044 | -122.30459 | 414 ft | 8 kts | 270° |
| 2026-05-05 20:39 | 47.45045 | -122.30535 | 414 ft | 6 kts | 270° |
| 2026-05-05 20:39 | 47.45050 | -122.30606 | 414 ft | 8 kts | 294° |
| 2026-05-05 20:39 | 47.45100 | -122.30628 | 415 ft | 8 kts | 2° |
| 2026-05-05 20:40 | 47.45153 | -122.30626 | 409 ft | 7 kts | 0° |
| 2026-05-05 20:40 | 47.45202 | -122.30625 | 414 ft | 7 kts | 0° |
| 2026-05-05 20:40 | 47.45247 | -122.30625 | 415 ft | 5 kts | 0° |
| 2026-05-05 20:40 | 47.45282 | -122.30625 | 416 ft | 7 kts | 360° |
| 2026-05-05 20:41 | 47.45335 | -122.30625 | 421 ft | 6 kts | 0° |
| 2026-05-05 20:41 | 47.45399 | -122.30624 | 425 ft | 10 kts | 0° |
| 2026-05-05 20:41 | 47.45479 | -122.30623 | 425 ft | 13 kts | 0° |
| 2026-05-05 20:41 | 47.45567 | -122.30623 | 433 ft | 12 kts | 0° |
| 2026-05-05 20:42 | 47.45651 | -122.30621 | 430 ft | 12 kts | 0° |
| 2026-05-05 20:42 | 47.45736 | -122.30621 | 434 ft | 13 kts | 0° |
| 2026-05-05 20:42 | 47.45827 | -122.30620 | 428 ft | 14 kts | 0° |
| 2026-05-05 20:42 | 47.45926 | -122.30619 | 429 ft | 14 kts | 0° |
| 2026-05-05 20:43 | 47.46026 | -122.30618 | 428 ft | 15 kts | 1° |
| 2026-05-05 20:43 | 47.46136 | -122.30617 | 437 ft | 17 kts | 360° |
| 2026-05-05 20:43 | 47.46225 | -122.30617 | 433 ft | 12 kts | 0° |
| 2026-05-05 20:43 | 47.46308 | -122.30615 | 435 ft | 9 kts | 0° |
| 2026-05-05 20:44 | 47.46336 | -122.30615 | 439 ft | 1 kts | 0° |
| 2026-05-05 20:44 | 47.46346 | -122.30615 | 438 ft | 1 kts | 0° |
| 2026-05-05 20:44 | 47.46357 | -122.30616 | 435 ft | 2 kts | 351° |
| 2026-05-05 20:44 | 47.46372 | -122.30631 | 443 ft | 4 kts | 314° |
| 2026-05-05 20:45 | 47.46362 | -122.30755 | 438 ft | 8 kts | 231° |
| 2026-05-05 20:45 | 47.46297 | -122.30780 | 437 ft | 12 kts | 183° |
| 2026-05-05 20:45 | 47.46203 | -122.30779 | 433 ft | 16 kts | 179° |
| 2026-05-05 20:46 | 47.45984 | -122.30781 | 426 ft | 60 kts | 181° |
| 2026-05-05 20:46 | 47.45355 | -122.30787 | 421 ft | 117 kts | 180° |
| 2026-05-05 20:46 | 47.44382 | -122.30795 | 396 ft | 160 kts | 180° |
| 2026-05-05 20:46 | 47.43215 | -122.30799 | 784 ft | 170 kts | 182° |
| 2026-05-05 20:47 | 47.42033 | -122.30797 | 1468 ft | 169 kts | 182° |
| 2026-05-05 20:47 | 47.40826 | -122.30799 | 1903 ft | 182 kts | 182° |
| 2026-05-05 20:47 | 47.39482 | -122.30809 | 2112 ft | 206 kts | 182° |
| 2026-05-05 20:47 | 47.37962 | -122.30824 | 2410 ft | 231 kts | 181° |
| 2026-05-05 20:48 | 47.36271 | -122.30840 | 2881 ft | 252 kts | 181° |
| 2026-05-05 20:48 | 47.34485 | -122.30855 | 3632 ft | 261 kts | 180° |
| 2026-05-05 20:48 | 47.32638 | -122.30871 | 4402 ft | 270 kts | 181° |
| 2026-05-05 20:48 | 47.30726 | -122.30892 | 5132 ft | 279 kts | 181° |
| 2026-05-05 20:49 | 47.28771 | -122.30915 | 5948 ft | 283 kts | 180° |
| 2026-05-05 20:49 | 47.26792 | -122.30940 | 6752 ft | 287 kts | 180° |
| 2026-05-05 20:49 | 47.24783 | -122.30914 | 7547 ft | 290 kts | 173° |
| 2026-05-05 20:49 | 47.22887 | -122.29937 | 8340 ft | 292 kts | 149° |
| 2026-05-05 20:50 | 47.21071 | -122.28561 | 9157 ft | 294 kts | 156° |
| 2026-05-05 20:50 | 47.19152 | -122.27484 | 9962 ft | 297 kts | 161° |
| 2026-05-05 20:50 | 47.17178 | -122.26540 | 10688 ft | 300 kts | 162° |
| 2026-05-05 20:50 | 47.15118 | -122.25595 | 10965 ft | 322 kts | 162° |
| 2026-05-05 20:51 | 47.12904 | -122.24565 | 11188 ft | 342 kts | 161° |
| 2026-05-05 20:51 | 47.10619 | -122.23472 | 11752 ft | 350 kts | 161° |
| 2026-05-05 20:51 | 47.08296 | -122.22326 | 12380 ft | 354 kts | 160° |
| 2026-05-05 20:51 | 47.05943 | -122.21139 | 13017 ft | 359 kts | 160° |
| 2026-05-05 20:52 | 47.03572 | -122.19931 | 13633 ft | 364 kts | 159° |
| 2026-05-05 20:52 | 47.01165 | -122.18699 | 14195 ft | 369 kts | 159° |
| 2026-05-05 20:52 | 46.98729 | -122.17453 | 14725 ft | 373 kts | 159° |
| 2026-05-05 20:52 | 46.96264 | -122.16196 | 15271 ft | 377 kts | 159° |
| 2026-05-05 20:53 | 46.93774 | -122.14933 | 15805 ft | 381 kts | 159° |
| 2026-05-05 20:53 | 46.91258 | -122.13659 | 16335 ft | 385 kts | 159° |
| 2026-05-05 20:53 | 46.88716 | -122.12372 | 16870 ft | 389 kts | 159° |
| 2026-05-05 20:53 | 46.86148 | -122.11070 | 17417 ft | 393 kts | 158° |
| 2026-05-05 20:54 | 46.83551 | -122.09757 | 17928 ft | 397 kts | 158° |
| 2026-05-05 20:54 | 46.80924 | -122.08431 | 18420 ft | 401 kts | 158° |
| 2026-05-05 20:54 | 46.78269 | -122.07096 | 18891 ft | 405 kts | 159° |
| 2026-05-05 20:54 | 46.75588 | -122.05755 | 19379 ft | 409 kts | 159° |
| 2026-05-05 20:55 | 46.72883 | -122.04401 | 19845 ft | 413 kts | 159° |
| 2026-05-05 20:55 | 46.70156 | -122.03033 | 20337 ft | 416 kts | 159° |
| 2026-05-05 20:55 | 46.67408 | -122.01647 | 20789 ft | 419 kts | 158° |
| 2026-05-05 20:55 | 46.64767 | -121.99890 | 21286 ft | 418 kts | 147° |
| 2026-05-05 20:56 | 46.62383 | -121.97491 | 21728 ft | 417 kts | 136° |
| 2026-05-05 20:56 | 46.60344 | -121.94509 | 22164 ft | 414 kts | 125° |
| 2026-05-05 20:56 | 46.58716 | -121.91071 | 22595 ft | 413 kts | 115° |
| 2026-05-05 20:56 | 46.57295 | -121.87428 | 23031 ft | 416 kts | 114° |
| 2026-05-05 20:57 | 46.55852 | -121.83756 | 23436 ft | 420 kts | 115° |
| 2026-05-05 20:57 | 46.54389 | -121.80057 | 23809 ft | 424 kts | 115° |
| 2026-05-05 20:57 | 46.52912 | -121.76343 | 24145 ft | 426 kts | 115° |
| 2026-05-05 20:57 | 46.51422 | -121.72609 | 24522 ft | 429 kts | 115° |
| 2026-05-05 20:58 | 46.49923 | -121.68862 | 24818 ft | 430 kts | 116° |
| 2026-05-05 20:58 | 46.48416 | -121.65095 | 25162 ft | 433 kts | 116° |
| 2026-05-05 20:58 | 46.46899 | -121.61313 | 25536 ft | 435 kts | 116° |
| 2026-05-05 20:58 | 46.45337 | -121.57540 | 25889 ft | 438 kts | 117° |
| 2026-05-05 20:59 | 46.43731 | -121.53774 | 26254 ft | 440 kts | 118° |
| 2026-05-05 20:59 | 46.42098 | -121.50008 | 26598 ft | 442 kts | 118° |
| 2026-05-05 20:59 | 46.40452 | -121.46231 | 26959 ft | 444 kts | 118° |
| 2026-05-05 20:59 | 46.38801 | -121.42433 | 27310 ft | 447 kts | 118° |
| 2026-05-05 21:00 | 46.37148 | -121.38612 | 27661 ft | 449 kts | 118° |
| 2026-05-05 21:00 | 46.35491 | -121.34770 | 27995 ft | 451 kts | 118° |
| 2026-05-05 21:00 | 46.33830 | -121.30909 | 28329 ft | 453 kts | 118° |
| 2026-05-05 21:00 | 46.32160 | -121.27033 | 28654 ft | 455 kts | 118° |
| 2026-05-05 21:01 | 46.30482 | -121.23138 | 28956 ft | 457 kts | 118° |
| 2026-05-05 21:01 | 46.28797 | -121.19234 | 29292 ft | 460 kts | 118° |
| 2026-05-05 21:01 | 46.27096 | -121.15306 | 29634 ft | 462 kts | 118° |
| 2026-05-05 21:01 | 46.25404 | -121.11406 | 29994 ft | 463 kts | 118° |
| 2026-05-05 21:02 | 46.23690 | -121.07472 | 30423 ft | 462 kts | 118° |
| 2026-05-05 21:02 | 46.21954 | -121.03497 | 30831 ft | 461 kts | 118° |
| 2026-05-05 21:02 | 46.20265 | -120.99631 | 31195 ft | 461 kts | 118° |
| 2026-05-05 21:02 | 46.18533 | -120.95664 | 31594 ft | 461 kts | 118° |
| 2026-05-05 21:03 | 46.16826 | -120.91764 | 31991 ft | 460 kts | 118° |
| 2026-05-05 21:03 | 46.15112 | -120.87849 | 32367 ft | 461 kts | 117° |
| 2026-05-05 21:03 | 46.13403 | -120.83953 | 32758 ft | 461 kts | 117° |
| 2026-05-05 21:03 | 46.11684 | -120.80043 | 33130 ft | 461 kts | 117° |
| 2026-05-05 21:04 | 46.09964 | -120.76131 | 33401 ft | 464 kts | 117° |
| 2026-05-05 21:04 | 46.08232 | -120.72196 | 33672 ft | 467 kts | 117° |
| 2026-05-05 21:04 | 46.06486 | -120.68233 | 33934 ft | 469 kts | 117° |
| 2026-05-05 21:04 | 46.04735 | -120.64254 | 34174 ft | 472 kts | 117° |
| 2026-05-05 21:05 | 46.02974 | -120.60259 | 34423 ft | 474 kts | 117° |
| 2026-05-05 21:05 | 46.01200 | -120.56251 | 34653 ft | 476 kts | 117° |
| 2026-05-05 21:05 | 45.99439 | -120.52281 | 34853 ft | 479 kts | 117° |
| 2026-05-05 21:05 | 45.97639 | -120.48229 | 34919 ft | 483 kts | 117° |
| 2026-05-05 21:06 | 45.94011 | -120.40084 | 34921 ft | 484 kts | 117° |
| 2026-05-05 21:06 | 45.90373 | -120.31947 | 34922 ft | 484 kts | 117° |
| 2026-05-05 21:07 | 45.86739 | -120.23817 | 34920 ft | 484 kts | 117° |
| 2026-05-05 21:07 | 45.83106 | -120.15695 | 34921 ft | 484 kts | 117° |
| 2026-05-05 21:08 | 45.79455 | -120.07587 | 34927 ft | 484 kts | 117° |
| 2026-05-05 21:08 | 45.75794 | -119.99490 | 34932 ft | 484 kts | 117° |
| 2026-05-05 21:09 | 45.72126 | -119.91401 | 34948 ft | 484 kts | 117° |
| 2026-05-05 21:09 | 45.68461 | -119.83318 | 34948 ft | 485 kts | 117° |
| 2026-05-05 21:10 | 45.64786 | -119.75229 | 34950 ft | 485 kts | 117° |
| 2026-05-05 21:10 | 45.61122 | -119.67211 | 34940 ft | 485 kts | 117° |
| 2026-05-05 21:11 | 45.57421 | -119.59152 | 34954 ft | 485 kts | 117° |
| 2026-05-05 21:11 | 45.53721 | -119.51096 | 34961 ft | 485 kts | 117° |
| 2026-05-05 21:12 | 45.50016 | -119.43044 | 34963 ft | 486 kts | 117° |
| 2026-05-05 21:12 | 45.46295 | -119.35000 | 34960 ft | 486 kts | 117° |
| 2026-05-05 21:13 | 45.42578 | -119.26969 | 34966 ft | 486 kts | 117° |
| 2026-05-05 21:13 | 45.38857 | -119.18939 | 34975 ft | 486 kts | 117° |
| 2026-05-05 21:14 | 45.35123 | -119.10921 | 34973 ft | 486 kts | 117° |
| 2026-05-05 21:14 | 45.31377 | -119.02915 | 34987 ft | 486 kts | 117° |
| 2026-05-05 21:15 | 45.27625 | -118.94919 | 34972 ft | 487 kts | 117° |
| 2026-05-05 21:15 | 45.23862 | -118.86911 | 34988 ft | 488 kts | 117° |
| 2026-05-05 21:16 | 45.20093 | -118.78910 | 34981 ft | 488 kts | 117° |
| 2026-05-05 21:16 | 45.16309 | -118.70902 | 34990 ft | 489 kts | 118° |
| 2026-05-05 21:17 | 45.12523 | -118.62910 | 35007 ft | 489 kts | 118° |
| 2026-05-05 21:17 | 45.08730 | -118.54915 | 35008 ft | 489 kts | 118° |
| 2026-05-05 21:18 | 45.04927 | -118.46934 | 35010 ft | 489 kts | 118° |
| 2026-05-05 21:18 | 45.01115 | -118.38965 | 35010 ft | 489 kts | 118° |
| 2026-05-05 21:19 | 44.97223 | -118.31055 | 35009 ft | 491 kts | 120° |
| 2026-05-05 21:19 | 44.93086 | -118.23363 | 34988 ft | 492 kts | 122° |
| 2026-05-05 21:20 | 44.88873 | -118.15767 | 34985 ft | 492 kts | 122° |
| 2026-05-05 21:20 | 44.84725 | -118.08169 | 35020 ft | 492 kts | 121° |
| 2026-05-05 21:21 | 44.80585 | -118.00490 | 34988 ft | 492 kts | 121° |
| 2026-05-05 21:21 | 44.76437 | -117.92812 | 34989 ft | 493 kts | 121° |
| 2026-05-05 21:22 | 44.72943 | -117.86392 | 34987 ft | 493 kts | 121° |
| 2026-05-05 21:22 | 44.68798 | -117.78799 | 34991 ft | 493 kts | 121° |
| 2026-05-05 21:23 | 44.64617 | -117.71151 | 34973 ft | 493 kts | 121° |
| 2026-05-05 21:23 | 44.60426 | -117.63516 | 34958 ft | 494 kts | 121° |
| 2026-05-05 21:24 | 44.56231 | -117.55891 | 34946 ft | 493 kts | 121° |
| 2026-05-05 21:24 | 44.52046 | -117.48286 | 34918 ft | 493 kts | 121° |
| 2026-05-05 21:25 | 44.47845 | -117.40690 | 34907 ft | 493 kts | 121° |
| 2026-05-05 21:25 | 44.43641 | -117.33114 | 34901 ft | 492 kts | 121° |
| 2026-05-05 21:26 | 44.39435 | -117.25545 | 34912 ft | 493 kts | 121° |
| 2026-05-05 21:26 | 44.35237 | -117.17980 | 34901 ft | 491 kts | 120° |
| 2026-05-05 21:27 | 44.31311 | -117.10199 | 34905 ft | 489 kts | 117° |
| 2026-05-05 21:27 | 44.27591 | -117.02274 | 34922 ft | 488 kts | 116° |
| 2026-05-05 21:28 | 44.23834 | -116.94368 | 34911 ft | 489 kts | 117° |
| 2026-05-05 21:28 | 44.19994 | -116.86531 | 34907 ft | 490 kts | 117° |
| 2026-05-05 21:29 | 44.16115 | -116.78720 | 34902 ft | 490 kts | 118° |
| 2026-05-05 21:29 | 44.12243 | -116.70910 | 34904 ft | 490 kts | 117° |
| 2026-05-05 21:30 | 44.08386 | -116.63096 | 34890 ft | 490 kts | 117° |
| 2026-05-05 21:30 | 44.04547 | -116.55344 | 34877 ft | 490 kts | 117° |
| 2026-05-05 21:31 | 44.00678 | -116.47543 | 34870 ft | 490 kts | 117° |
| 2026-05-05 21:31 | 43.96804 | -116.39774 | 34867 ft | 490 kts | 118° |
| 2026-05-05 21:32 | 43.92913 | -116.32011 | 34863 ft | 489 kts | 118° |
| 2026-05-05 21:32 | 43.89035 | -116.24259 | 34860 ft | 489 kts | 118° |
| 2026-05-05 21:33 | 43.85156 | -116.16518 | 34857 ft | 489 kts | 118° |
| 2026-05-05 21:33 | 43.81263 | -116.08811 | 34851 ft | 489 kts | 118° |
| 2026-05-05 21:34 | 43.77369 | -116.01097 | 34849 ft | 489 kts | 118° |
| 2026-05-05 21:34 | 43.73475 | -115.93392 | 34834 ft | 489 kts | 118° |
| 2026-05-05 21:35 | 43.69573 | -115.85700 | 34835 ft | 489 kts | 118° |
| 2026-05-05 21:35 | 43.65657 | -115.78016 | 34829 ft | 489 kts | 118° |
| 2026-05-05 21:36 | 43.61686 | -115.70382 | 34832 ft | 490 kts | 120° |
| 2026-05-05 21:36 | 43.57568 | -115.62877 | 34833 ft | 491 kts | 121° |
| 2026-05-05 21:37 | 43.53398 | -115.55407 | 34825 ft | 491 kts | 121° |
| 2026-05-05 21:37 | 43.49259 | -115.47932 | 34820 ft | 491 kts | 120° |
| 2026-05-05 21:38 | 43.45138 | -115.40430 | 34833 ft | 491 kts | 120° |
| 2026-05-05 21:38 | 43.41012 | -115.32924 | 34819 ft | 492 kts | 120° |
| 2026-05-05 21:39 | 43.36864 | -115.25430 | 34809 ft | 492 kts | 120° |
| 2026-05-05 21:39 | 43.32708 | -115.17959 | 34799 ft | 492 kts | 120° |
| 2026-05-05 21:40 | 43.28547 | -115.10493 | 34805 ft | 492 kts | 121° |
| 2026-05-05 21:40 | 43.24385 | -115.03035 | 34810 ft | 492 kts | 121° |
| 2026-05-05 21:41 | 43.20221 | -114.95594 | 34814 ft | 487 kts | 121° |
| 2026-05-05 21:41 | 43.18179 | -114.91969 | 34815 ft | 474 kts | 121° |
| 2026-05-05 21:41 | 43.16177 | -114.88413 | 34836 ft | 469 kts | 121° |
| 2026-05-05 21:42 | 43.12215 | -114.81345 | 34857 ft | 467 kts | 120° |
| 2026-05-05 21:42 | 43.08253 | -114.74296 | 34872 ft | 467 kts | 121° |
| 2026-05-05 21:43 | 43.04281 | -114.67268 | 34892 ft | 467 kts | 121° |
| 2026-05-05 21:43 | 43.00304 | -114.60245 | 34908 ft | 467 kts | 121° |
| 2026-05-05 21:44 | 42.96317 | -114.53225 | 34892 ft | 468 kts | 121° |
| 2026-05-05 21:44 | 42.92321 | -114.46202 | 34874 ft | 469 kts | 121° |
| 2026-05-05 21:45 | 42.88319 | -114.39182 | 34903 ft | 469 kts | 121° |
| 2026-05-05 21:45 | 42.84320 | -114.32187 | 34840 ft | 468 kts | 121° |
| 2026-05-05 21:46 | 42.80316 | -114.25209 | 34840 ft | 467 kts | 121° |
| 2026-05-05 21:46 | 42.76339 | -114.18292 | 34838 ft | 467 kts | 121° |
| 2026-05-05 21:47 | 42.72340 | -114.11336 | 34854 ft | 467 kts | 121° |
| 2026-05-05 21:47 | 42.68339 | -114.04392 | 34872 ft | 466 kts | 121° |
| 2026-05-05 21:48 | 42.64332 | -113.97461 | 34889 ft | 466 kts | 121° |
| 2026-05-05 21:48 | 42.60311 | -113.90531 | 34916 ft | 467 kts | 121° |
| 2026-05-05 21:49 | 42.56016 | -113.83875 | 34915 ft | 473 kts | 129° |
| 2026-05-05 21:49 | 42.51326 | -113.77605 | 34935 ft | 474 kts | 129° |
| 2026-05-05 21:50 | 42.46637 | -113.71325 | 34926 ft | 474 kts | 129° |
| 2026-05-05 21:50 | 42.41951 | -113.65046 | 34902 ft | 474 kts | 129° |
| 2026-05-05 21:51 | 42.39605 | -113.61919 | 34706 ft | 471 kts | 129° |
| 2026-05-05 21:51 | 42.37278 | -113.58829 | 34453 ft | 467 kts | 129° |
| 2026-05-05 21:51 | 42.34964 | -113.55760 | 34212 ft | 465 kts | 129° |
| 2026-05-05 21:51 | 42.32662 | -113.52704 | 33968 ft | 463 kts | 129° |
| 2026-05-05 21:52 | 42.28087 | -113.46627 | 33427 ft | 459 kts | 128° |
| 2026-05-05 21:52 | 42.25813 | -113.43605 | 33156 ft | 458 kts | 129° |
| 2026-05-05 21:52 | 42.23546 | -113.40590 | 32922 ft | 458 kts | 129° |
| 2026-05-05 21:53 | 42.21279 | -113.37582 | 32660 ft | 457 kts | 129° |
| 2026-05-05 21:53 | 42.19009 | -113.34583 | 32396 ft | 456 kts | 129° |
| 2026-05-05 21:53 | 42.16745 | -113.31599 | 32084 ft | 452 kts | 129° |
| 2026-05-05 21:53 | 42.14509 | -113.28658 | 31624 ft | 449 kts | 129° |
| 2026-05-05 21:54 | 42.12311 | -113.25765 | 31188 ft | 446 kts | 129° |
| 2026-05-05 21:54 | 42.10065 | -113.22810 | 30726 ft | 444 kts | 129° |
| 2026-05-05 21:54 | 42.07888 | -113.19947 | 30289 ft | 442 kts | 129° |
| 2026-05-05 21:54 | 42.05660 | -113.17024 | 29840 ft | 441 kts | 130° |
| 2026-05-05 21:55 | 42.03497 | -113.14195 | 29374 ft | 438 kts | 130° |
| 2026-05-05 21:55 | 42.01319 | -113.11359 | 28958 ft | 434 kts | 130° |
| 2026-05-05 21:55 | 41.99165 | -113.08543 | 28558 ft | 430 kts | 130° |
| 2026-05-05 21:55 | 41.97039 | -113.05751 | 28155 ft | 427 kts | 130° |
| 2026-05-05 21:56 | 41.94922 | -113.02976 | 27754 ft | 424 kts | 130° |
| 2026-05-05 21:56 | 41.92813 | -113.00218 | 27345 ft | 421 kts | 131° |
| 2026-05-05 21:56 | 41.90725 | -112.97496 | 26963 ft | 418 kts | 131° |
| 2026-05-05 21:56 | 41.88647 | -112.94791 | 26582 ft | 415 kts | 131° |
| 2026-05-05 21:57 | 41.86582 | -112.92104 | 26197 ft | 411 kts | 131° |
| 2026-05-05 21:57 | 41.84537 | -112.89444 | 25825 ft | 408 kts | 131° |
| 2026-05-05 21:57 | 41.82509 | -112.86805 | 25456 ft | 405 kts | 132° |
| 2026-05-05 21:57 | 41.80498 | -112.84190 | 25096 ft | 401 kts | 132° |
| 2026-05-05 21:58 | 41.78502 | -112.81601 | 24734 ft | 398 kts | 132° |
| 2026-05-05 21:58 | 41.76521 | -112.79036 | 24381 ft | 394 kts | 133° |
| 2026-05-05 21:58 | 41.74559 | -112.76493 | 24049 ft | 391 kts | 133° |
| 2026-05-05 21:58 | 41.72614 | -112.73983 | 23712 ft | 388 kts | 133° |
| 2026-05-05 21:59 | 41.70673 | -112.71484 | 23346 ft | 384 kts | 134° |
| 2026-05-05 21:59 | 41.68771 | -112.69036 | 22721 ft | 378 kts | 134° |
| 2026-05-05 21:59 | 41.66853 | -112.66559 | 22015 ft | 383 kts | 134° |
| 2026-05-05 21:59 | 41.64955 | -112.64108 | 21716 ft | 377 kts | 134° |
| 2026-05-05 22:00 | 41.63070 | -112.61679 | 21299 ft | 375 kts | 134° |
| 2026-05-05 22:00 | 41.61204 | -112.59278 | 21036 ft | 371 kts | 134° |
| 2026-05-05 22:00 | 41.59350 | -112.56895 | 20786 ft | 369 kts | 134° |
| 2026-05-05 22:00 | 41.57502 | -112.54528 | 20530 ft | 368 kts | 134° |
| 2026-05-05 22:01 | 41.55657 | -112.52164 | 20288 ft | 367 kts | 135° |
| 2026-05-05 22:01 | 41.53820 | -112.49813 | 20052 ft | 364 kts | 134° |
| 2026-05-05 22:01 | 41.51987 | -112.47502 | 19811 ft | 363 kts | 136° |
| 2026-05-05 22:01 | 41.50111 | -112.45257 | 19586 ft | 362 kts | 137° |
| 2026-05-05 22:02 | 41.48211 | -112.43056 | 19327 ft | 362 kts | 138° |
| 2026-05-05 22:02 | 41.46303 | -112.40874 | 19087 ft | 361 kts | 138° |
| 2026-05-05 22:02 | 41.44343 | -112.38793 | 18847 ft | 360 kts | 147° |
| 2026-05-05 22:02 | 41.42133 | -112.37231 | 18620 ft | 360 kts | 154° |
| 2026-05-05 22:03 | 41.39916 | -112.35791 | 18393 ft | 359 kts | 154° |
| 2026-05-05 22:03 | 41.37651 | -112.34313 | 18164 ft | 357 kts | 153° |
| 2026-05-05 22:03 | 41.35456 | -112.32878 | 17908 ft | 355 kts | 153° |
| 2026-05-05 22:03 | 41.33244 | -112.31432 | 17644 ft | 354 kts | 153° |
| 2026-05-05 22:04 | 41.31040 | -112.29990 | 17392 ft | 352 kts | 153° |
| 2026-05-05 22:04 | 41.28847 | -112.28559 | 17141 ft | 351 kts | 153° |
| 2026-05-05 22:04 | 41.26660 | -112.27135 | 16879 ft | 348 kts | 153° |
| 2026-05-05 22:04 | 41.24495 | -112.25724 | 16626 ft | 345 kts | 153° |
| 2026-05-05 22:05 | 41.22345 | -112.24321 | 16371 ft | 343 kts | 153° |
| 2026-05-05 22:05 | 41.20215 | -112.22931 | 16118 ft | 340 kts | 153° |
| 2026-05-05 22:05 | 41.18097 | -112.21551 | 15857 ft | 338 kts | 153° |
| 2026-05-05 22:05 | 41.15985 | -112.20181 | 15621 ft | 336 kts | 153° |
| 2026-05-05 22:06 | 41.13890 | -112.18821 | 15370 ft | 335 kts | 153° |
| 2026-05-05 22:06 | 41.11802 | -112.17463 | 15130 ft | 333 kts | 153° |
| 2026-05-05 22:06 | 41.09726 | -112.16114 | 14908 ft | 332 kts | 153° |
| 2026-05-05 22:06 | 41.07617 | -112.14873 | 14664 ft | 331 kts | 162° |
| 2026-05-05 22:07 | 41.05377 | -112.14240 | 14422 ft | 328 kts | 171° |
| 2026-05-05 22:07 | 41.03137 | -112.13773 | 14177 ft | 324 kts | 171° |
| 2026-05-05 22:07 | 41.00923 | -112.13300 | 13940 ft | 321 kts | 171° |
| 2026-05-05 22:07 | 40.98730 | -112.12827 | 13697 ft | 317 kts | 171° |
| 2026-05-05 22:08 | 40.96558 | -112.12355 | 13427 ft | 315 kts | 171° |
| 2026-05-05 22:08 | 40.94405 | -112.11888 | 13161 ft | 313 kts | 171° |
| 2026-05-05 22:08 | 40.92987 | -112.11583 | 12992 ft | 312 kts | 172° |
| 2026-05-05 22:08 | 40.90119 | -112.11038 | 12654 ft | 310 kts | 173° |
| 2026-05-05 22:09 | 40.87991 | -112.10669 | 12399 ft | 307 kts | 174° |
| 2026-05-05 22:09 | 40.86595 | -112.10421 | 12238 ft | 305 kts | 173° |
| 2026-05-05 22:09 | 40.84499 | -112.10044 | 11989 ft | 303 kts | 174° |
| 2026-05-05 22:09 | 40.82426 | -112.09669 | 11737 ft | 301 kts | 174° |
| 2026-05-05 22:10 | 40.80361 | -112.09280 | 11496 ft | 298 kts | 174° |
| 2026-05-05 22:10 | 40.78311 | -112.08895 | 11248 ft | 296 kts | 174° |
| 2026-05-05 22:10 | 40.76283 | -112.08508 | 11039 ft | 292 kts | 174° |
| 2026-05-05 22:10 | 40.74306 | -112.08112 | 10995 ft | 281 kts | 173° |
| 2026-05-05 22:11 | 40.72399 | -112.07735 | 11011 ft | 275 kts | 174° |
| 2026-05-05 22:11 | 40.70503 | -112.07413 | 11019 ft | 275 kts | 176° |
| 2026-05-05 22:11 | 40.68603 | -112.07106 | 11026 ft | 274 kts | 176° |
| 2026-05-05 22:11 | 40.66713 | -112.06815 | 11029 ft | 273 kts | 176° |
| 2026-05-05 22:12 | 40.64823 | -112.06521 | 11025 ft | 274 kts | 176° |
| 2026-05-05 22:12 | 40.62928 | -112.06222 | 11028 ft | 274 kts | 175° |
| 2026-05-05 22:12 | 40.61038 | -112.05931 | 11026 ft | 273 kts | 176° |
| 2026-05-05 22:12 | 40.59111 | -112.05635 | 11028 ft | 283 kts | 176° |
| 2026-05-05 22:13 | 40.57141 | -112.05324 | 11025 ft | 286 kts | 175° |
| 2026-05-05 22:13 | 40.55167 | -112.05024 | 11024 ft | 285 kts | 176° |
| 2026-05-05 22:13 | 40.53192 | -112.04726 | 11022 ft | 285 kts | 176° |
| 2026-05-05 22:13 | 40.51252 | -112.04417 | 11017 ft | 276 kts | 175° |
| 2026-05-05 22:14 | 40.49360 | -112.04125 | 11010 ft | 273 kts | 176° |
| 2026-05-05 22:14 | 40.47469 | -112.03826 | 11005 ft | 274 kts | 176° |
| 2026-05-05 22:14 | 40.45578 | -112.03520 | 10993 ft | 273 kts | 175° |
| 2026-05-05 22:14 | 40.43714 | -112.03240 | 10987 ft | 273 kts | 175° |
| 2026-05-05 22:15 | 40.41802 | -112.02935 | 10977 ft | 275 kts | 168° |
| 2026-05-05 22:15 | 40.40141 | -112.01823 | 10975 ft | 275 kts | 135° |
| 2026-05-05 22:15 | 40.39147 | -111.99726 | 10975 ft | 272 kts | 103° |
| 2026-05-05 22:15 | 40.39076 | -111.97296 | 10974 ft | 266 kts | 72° |
| 2026-05-05 22:16 | 40.39891 | -111.95177 | 10974 ft | 259 kts | 44° |
| 2026-05-05 22:16 | 40.41336 | -111.93859 | 10978 ft | 253 kts | 16° |
| 2026-05-05 22:16 | 40.43047 | -111.93472 | 10982 ft | 251 kts | 2° |
| 2026-05-05 22:16 | 40.44801 | -111.93395 | 10719 ft | 251 kts | 355° |
| 2026-05-05 22:17 | 40.46541 | -111.93549 | 10418 ft | 251 kts | 352° |
| 2026-05-05 22:17 | 40.48285 | -111.93788 | 10091 ft | 253 kts | 351° |
| 2026-05-05 22:17 | 40.50037 | -111.94042 | 9736 ft | 254 kts | 350° |
| 2026-05-05 22:17 | 40.51788 | -111.94287 | 9360 ft | 251 kts | 351° |
| 2026-05-05 22:18 | 40.53502 | -111.94511 | 9027 ft | 242 kts | 351° |
| 2026-05-05 22:18 | 40.55153 | -111.94716 | 8694 ft | 235 kts | 351° |
| 2026-05-05 22:18 | 40.56756 | -111.94907 | 8375 ft | 228 kts | 351° |
| 2026-05-05 22:18 | 40.58309 | -111.95090 | 8072 ft | 220 kts | 352° |
| 2026-05-05 22:19 | 40.59812 | -111.95266 | 7769 ft | 214 kts | 351° |
| 2026-05-05 22:19 | 40.61281 | -111.95439 | 7500 ft | 212 kts | 351° |
| 2026-05-05 22:19 | 40.62747 | -111.95610 | 7211 ft | 210 kts | 353° |
| 2026-05-05 22:19 | 40.64180 | -111.95776 | 6939 ft | 204 kts | 354° |
| 2026-05-05 22:20 | 40.65578 | -111.95937 | 6672 ft | 198 kts | 354° |
| 2026-05-05 22:20 | 40.66914 | -111.96091 | 6435 ft | 188 kts | 355° |
| 2026-05-05 22:20 | 40.68193 | -111.96239 | 6189 ft | 183 kts | 354° |
| 2026-05-05 22:20 | 40.69450 | -111.96384 | 5947 ft | 180 kts | 353° |
| 2026-05-05 22:21 | 40.70646 | -111.96522 | 5708 ft | 164 kts | 352° |
| 2026-05-05 22:21 | 40.71744 | -111.96648 | 5475 ft | 154 kts | 352° |
| 2026-05-05 22:21 | 40.72803 | -111.96772 | 5243 ft | 152 kts | 353° |
| 2026-05-05 22:21 | 40.73853 | -111.96894 | 4987 ft | 152 kts | 353° |
| 2026-05-05 22:22 | 40.74909 | -111.97020 | 4782 ft | 152 kts | 354° |
| 2026-05-05 22:22 | 40.75964 | -111.97145 | 4577 ft | 152 kts | 354° |
| 2026-05-05 22:22 | 40.77015 | -111.97263 | 4384 ft | 151 kts | 354° |
| 2026-05-05 22:22 | 40.78055 | -111.97389 | 4285 ft | 143 kts | 356° |
| 2026-05-05 22:23 | 40.78891 | -111.97476 | 4232 ft | 96 kts | 354° |
| 2026-05-05 22:23 | 40.79351 | -111.97537 | 4229 ft | 29 kts | 354° |
| 2026-05-05 22:23 | 40.79481 | -111.97608 | 4229 ft | 16 kts | 331° |
| 2026-05-05 22:23 | 40.79540 | -111.97657 | 4229 ft | 9 kts | 313° |
| 2026-05-05 22:24 | 40.79545 | -111.97730 | 4230 ft | 8 kts | 245° |
| 2026-05-05 22:24 | 40.79492 | -111.97766 | 4230 ft | 9 kts | 184° |
| 2026-05-05 22:24 | 40.79422 | -111.97759 | 4230 ft | 11 kts | 175° |
| 2026-05-05 22:24 | 40.79341 | -111.97749 | 4231 ft | 12 kts | 174° |
| 2026-05-05 22:25 | 40.79250 | -111.97739 | 4231 ft | 14 kts | 176° |
| 2026-05-05 22:25 | 40.79147 | -111.97727 | 4231 ft | 16 kts | 175° |
| 2026-05-05 22:25 | 40.79035 | -111.97715 | 4231 ft | 17 kts | 175° |
| 2026-05-05 22:25 | 40.78929 | -111.97702 | 4232 ft | 8 kts | 175° |
| 2026-05-05 22:26 | 40.78927 | -111.97702 | 4231 ft | 0 kts | 175° |
| 2026-05-05 22:28 | 40.78925 | -111.97701 | 4231 ft | 2 kts | 175° |
| 2026-05-05 22:28 | 40.78894 | -111.97698 | 4231 ft | 6 kts | 175° |
| 2026-05-05 22:28 | 40.78849 | -111.97698 | 4231 ft | 7 kts | 196° |
| 2026-05-05 22:29 | 40.78834 | -111.97759 | 4231 ft | 8 kts | 267° |
| 2026-05-05 22:29 | 40.78829 | -111.97837 | 4231 ft | 9 kts | 262° |
| 2026-05-05 22:29 | 40.78817 | -111.97926 | 4231 ft | 10 kts | 263° |
| 2026-05-05 22:29 | 40.78810 | -111.98022 | 4231 ft | 11 kts | 264° |
| 2026-05-05 22:30 | 40.78802 | -111.98126 | 4231 ft | 12 kts | 265° |
| 2026-05-05 22:30 | 40.78795 | -111.98229 | 4231 ft | 10 kts | 264° |
| 2026-05-05 22:30 | 40.78788 | -111.98317 | 4231 ft | 7 kts | 263° |
| 2026-05-05 22:30 | 40.78793 | -111.98345 | 4231 ft | 3 kts | 309° |
| 2026-05-05 22:31 | 40.78814 | -111.98352 | 4231 ft | 4 kts | 352° |
| 2026-05-05 22:31 | 40.78840 | -111.98355 | 4231 ft | 3 kts | 355° |
| 2026-05-05 22:31 | 40.78853 | -111.98356 | 4231 ft | 0 kts | 355° |
| 2026-05-05 22:31 | 40.78858 | -111.98357 | 4231 ft | 0 kts | 355° |